Time;durP1;ratioP1;P1;durP2;ratioP2;P2;SDS_P1;SDS_P2;PMS_P1;PMS_P2;Temp;Humidity;BMP_temperature;BMP_pressure;BME280_temperature;BME280_humidity;BME280_pressure;Samples;Min_cycle;Max_cycle;Signal;HPM_P1;HPM_P2
2022/11/28 04:30:35;;;;;;;8.15;4.07;;;12.30;71.70;;;;;;5448177;24;20056;-76
2022/11/28 04:33:06;;;;;;;10.07;4.20;;;12.30;72.00;;;;;;4865450;29;20129;-77
2022/11/28 04:35:38;;;;;;;10.43;3.55;;;12.30;72.40;;;;;;4865426;29;20177;-76
2022/11/28 04:38:09;;;;;;;9.82;3.50;;;12.40;72.70;;;;;;4865223;29;20056;-78
2022/11/28 04:40:47;;;;;;;7.13;3.05;;;12.50;72.90;;;;;;4865197;29;20134;-77
2022/11/28 04:43:20;;;;;;;10.20;3.15;;;12.70;72.70;;;;;;4865186;29;20042;-76
2022/11/28 04:45:52;;;;;;;14.63;3.92;;;12.90;72.60;;;;;;4848587;29;20064;-77
2022/11/28 04:48:18;;;;;;;16.40;3.70;;;13.20;72.60;;;;;;4864758;29;20041;-75
2022/11/28 04:50:49;;;;;;;18.08;3.17;;;13.30;72.30;;;;;;4864930;29;20124;-78
2022/11/28 04:53:21;;;;;;;11.75;3.35;;;13.50;72.30;;;;;;4849482;29;20069;-77
2022/11/28 04:55:54;;;;;;;11.02;3.20;;;13.60;72.30;;;;;;4864097;29;20053;-76
2022/11/28 04:58:37;;;;;;;13.35;3.25;;;13.70;72.20;;;;;;4848777;29;20057;-78
2022/11/28 05:01:09;;;;;;;11.45;2.90;;;13.80;72.30;;;;;;4865285;29;20357;-78
2022/11/28 05:03:37;;;;;;;8.95;2.28;;;14.00;72.10;;;;;;4865319;29;20121;-78
2022/11/28 05:06:03;;;;;;;8.32;2.50;;;14.10;72.10;;;;;;4864275;29;20045;-79
2022/11/28 05:08:29;;;;;;;15.18;2.47;;;14.20;71.90;;;;;;4847909;29;20053;-78
2022/11/28 05:10:55;;;;;;;10.80;2.30;;;14.30;71.90;;;;;;4848175;29;20365;-78
2022/11/28 05:13:21;;;;;;;7.60;1.90;;;14.40;71.90;;;;;;4864241;29;20052;-79
2022/11/28 05:15:48;;;;;;;10.93;2.85;;;14.50;71.80;;;;;;4864422;29;20045;-77
2022/11/28 05:18:14;;;;;;;10.68;2.22;;;14.60;71.90;;;;;;4864659;29;20133;-77
2022/11/28 05:20:40;;;;;;;13.23;2.75;;;14.60;72.00;;;;;;4864314;29;20478;-78
2022/11/28 05:23:06;;;;;;;12.45;2.10;;;14.80;72.20;;;;;;4847809;29;20084;-76
2022/11/28 05:25:32;;;;;;;19.83;2.22;;;14.80;72.20;;;;;;4864406;29;20098;-77
2022/11/28 05:27:58;;;;;;;14.60;2.53;;;14.90;72.10;;;;;;4847701;29;20069;-76
2022/11/28 05:30:23;;;;;;;11.07;2.20;;;15.00;72.10;;;;;;4864223;29;20171;-77
2022/11/28 05:32:49;;;;;;;14.13;3.60;;;15.10;72.10;;;;;;4882778;29;20056;-77
2022/11/28 05:35:15;;;;;;;11.52;2.10;;;15.20;72.90;;;;;;4882600;29;20049;-80
2022/11/28 05:37:41;;;;;;;4.90;1.95;;;15.30;72.30;;;;;;4866337;29;20092;-80
2022/11/28 05:40:07;;;;;;;17.17;2.38;;;15.30;72.40;;;;;;4866232;29;20053;-81
2022/11/28 05:42:34;;;;;;;9.68;2.22;;;15.30;72.60;;;;;;4861849;29;20091;-80
2022/11/28 05:45:06;;;;;;;16.50;2.70;;;15.30;72.70;;;;;;4842440;29;20037;-81
2022/11/28 05:47:32;;;;;;;24.40;3.42;;;15.30;68.10;;;;;;4858760;29;20068;-78
2022/11/28 05:58:25;;;;;;;14.85;3.42;;;15.40;73.50;;;;;;4804776;29;20195;-80
2022/11/28 06:00:51;;;;;;;19.33;3.22;;;15.40;73.40;;;;;;4806191;29;20082;-80
2022/11/28 06:03:19;;;;;;;18.08;2.80;;;15.40;73.40;;;;;;4805095;29;20171;-83
2022/11/28 06:05:45;;;;;;;20.55;3.22;;;15.40;73.40;;;;;;4846967;29;20082;-78
2022/11/28 06:08:20;;;;;;;16.85;3.15;;;15.40;73.30;;;;;;4846929;29;20084;-81
2022/11/28 06:10:57;;;;;;;13.57;3.40;;;15.40;72.80;;;;;;4847263;29;20045;-79
2022/11/28 06:13:24;;;;;;;7.82;2.72;;;15.30;72.00;;;;;;4880654;29;20045;-75
2022/11/28 06:15:50;;;;;;;12.23;3.05;;;15.30;72.10;;;;;;4880938;29;20056;-78
2022/11/28 06:18:15;;;;;;;15.40;3.88;;;15.30;72.10;;;;;;4881839;29;20048;-76
2022/11/28 06:20:41;;;;;;;8.98;2.75;;;15.20;71.90;;;;;;4881338;29;20045;-76
2022/11/28 06:23:07;;;;;;;8.48;2.70;;;15.10;71.30;;;;;;4881117;29;20052;-77
2022/11/28 06:25:33;;;;;;;5.70;2.72;;;15.00;70.80;;;;;;4880096;29;20051;-78
2022/11/28 06:27:58;;;;;;;3.17;2.30;;;14.90;70.60;;;;;;4880629;29;20250;-77
2022/11/28 06:30:42;;;;;;;3.47;2.60;;;14.90;70.40;;;;;;4881289;29;20484;-82
2022/11/28 06:37:56;;;;;;;4.40;2.28;;;14.70;69.50;;;;;;4824215;29;20435;-82
2022/11/28 06:40:21;;;;;;;3.40;2.08;;;14.60;69.80;;;;;;4824037;29;20046;-76
2022/11/28 06:42:51;;;;;;;4.68;1.95;;;14.50;70.00;;;;;;4874948;29;20063;-83
2022/11/28 06:45:24;;;;;;;8.18;2.47;;;14.50;70.00;;;;;;4880082;29;20041;-83
2022/11/28 06:48:02;;;;;;;5.13;2.05;;;14.40;70.20;;;;;;4864159;29;20476;-84
2022/11/28 06:51:30;;;;;;;7.03;2.15;;;14.40;70.70;;;;;;4863249;29;20429;-84
2022/11/28 06:57:45;;;;;;;10.57;2.13;;;14.20;71.20;;;;;;4819939;29;20062;-81
2022/11/28 07:00:14;;;;;;;10.55;2.00;;;14.30;71.50;;;;;;4821655;29;20047;-83
2022/11/28 07:14:20;;;;;;;9.65;1.60;;;14.10;72.10;;;;;;4717504;29;20105;-81
2022/11/28 07:16:58;;;;;;;7.15;1.95;;;14.10;72.50;;;;;;4805289;29;20058;-81
2022/11/28 07:19:47;;;;;;;9.00;2.17;;;14.10;72.60;;;;;;4804288;29;20054;-82
2022/11/28 07:23:14;;;;;;;;;;;;;;;;;;;;;
2022/11/28 07:25:40;;;;;;;5.28;1.20;;;14.10;73.00;;;;;;4859863;29;20061;-80
2022/11/28 07:28:12;;;;;;;9.60;1.58;;;14.10;73.20;;;;;;4881441;29;20055;-81
2022/11/28 07:30:46;;;;;;;14.88;2.38;;;14.10;73.50;;;;;;4883265;29;20384;-79
2022/11/28 07:33:12;;;;;;;10.57;1.90;;;14.10;74.20;;;;;;4867799;29;20057;-79
2022/11/28 07:35:38;;;;;;;10.13;2.42;;;14.00;73.50;;;;;;4884070;29;20105;-80
2022/11/28 07:38:04;;;;;;;8.73;1.70;;;14.00;73.50;;;;;;4881066;29;20056;-78
2022/11/28 07:40:29;;;;;;;8.93;1.80;;;14.10;73.40;;;;;;4851030;29;20540;-79
2022/11/28 07:42:56;;;;;;;8.07;1.75;;;14.00;73.20;;;;;;4877308;29;20482;-80
2022/11/28 07:45:28;;;;;;;10.00;2.05;;;14.10;73.20;;;;;;4849705;29;20369;-80
2022/11/28 07:47:54;;;;;;;9.82;1.52;;;14.20;73.10;;;;;;4865650;29;20053;-80
2022/11/28 07:50:19;;;;;;;14.68;2.28;;;14.40;72.70;;;;;;4866089;29;20117;-79
2022/11/28 07:52:45;;;;;;;11.57;1.20;;;14.60;72.40;;;;;;4862722;29;20350;-79
2022/11/28 07:55:11;;;;;;;8.73;1.52;;;14.70;72.10;;;;;;4865129;29;20089;-80
2022/11/28 07:57:36;;;;;;;9.52;1.58;;;14.80;71.80;;;;;;4865701;29;20054;-81
2022/11/28 08:00:03;;;;;;;6.88;1.27;;;14.90;71.70;;;;;;4849411;29;20064;-79
2022/11/28 08:02:31;;;;;;;6.40;0.90;;;15.00;71.60;;;;;;4843580;29;20116;-82
2022/11/28 08:04:57;;;;;;;3.55;1.10;;;15.00;71.60;;;;;;4851237;29;20053;-80
2022/11/28 08:07:23;;;;;;;4.97;1.25;;;15.00;71.50;;;;;;4882988;29;20049;-80
2022/11/28 08:09:48;;;;;;;9.13;1.30;;;15.00;71.50;;;;;;4852299;29;20041;-81
2022/11/28 08:12:14;;;;;;;7.15;1.25;;;15.10;71.60;;;;;;4852554;29;20037;-84
2022/11/28 08:14:40;;;;;;;5.10;1.00;;;15.10;71.60;;;;;;4867600;29;20064;-80
2022/11/28 08:17:05;;;;;;;5.95;1.38;;;15.20;71.50;;;;;;4877496;29;20124;-80
2022/11/28 08:19:31;;;;;;;6.53;1.38;;;15.20;71.40;;;;;;4882991;29;20105;-80
2022/11/28 08:21:57;;;;;;;6.60;1.40;;;15.30;71.30;;;;;;4877726;29;20081;-82
2022/11/28 08:24:22;;;;;;;7.97;1.13;;;15.30;71.20;;;;;;4883548;29;20136;-78
2022/11/28 08:26:48;;;;;;;5.38;1.13;;;15.40;71.10;;;;;;4883583;29;20059;-80
2022/11/28 08:29:14;;;;;;;9.10;0.85;;;15.50;70.90;;;;;;4884085;29;20105;-77
2022/11/28 08:31:39;;;;;;;6.80;1.40;;;15.60;70.70;;;;;;4883197;29;20363;-78
2022/11/28 08:34:08;;;;;;;5.72;1.35;;;15.70;70.50;;;;;;4865149;29;20054;-82
2022/11/28 08:36:33;;;;;;;6.47;1.42;;;15.70;70.40;;;;;;4848570;29;20173;-79
2022/11/28 08:39:00;;;;;;;4.70;1.55;;;15.80;70.40;;;;;;4872589;29;20063;-80
2022/11/28 08:41:26;;;;;;;6.57;1.30;;;15.90;70.30;;;;;;4866595;29;20452;-79
2022/11/28 08:43:52;;;;;;;8.45;1.80;;;15.90;70.20;;;;;;4866678;29;20105;-80
2022/11/28 08:46:20;;;;;;;6.40;2.13;;;15.90;70.10;;;;;;4866764;29;20448;-79
2022/11/28 08:48:48;;;;;;;7.43;1.90;;;16.00;70.00;;;;;;4883504;29;20053;-78
2022/11/28 08:51:17;;;;;;;4.32;1.77;;;16.00;70.00;;;;;;4867389;29;20464;-84
2022/11/28 08:53:43;;;;;;;3.60;1.42;;;16.10;70.00;;;;;;4867248;29;20047;-81
2022/11/28 08:56:10;;;;;;;8.23;2.40;;;16.10;70.00;;;;;;4865902;29;20076;-84
2022/11/28 08:58:36;;;;;;;8.82;2.15;;;16.00;70.00;;;;;;4868600;29;20061;-83
2022/11/28 09:01:02;;;;;;;5.85;2.00;;;16.00;70.10;;;;;;4871025;29;20044;-82
2022/11/28 09:03:28;;;;;;;12.40;2.80;;;15.90;70.20;;;;;;4854941;29;20524;-84
2022/11/28 09:06:03;;;;;;;5.05;2.33;;;15.90;70.30;;;;;;4832858;29;20041;-81
2022/11/28 09:08:29;;;;;;;5.07;2.20;;;15.80;71.00;;;;;;4844033;29;20181;-81
2022/11/28 09:10:54;;;;;;;8.43;2.15;;;15.70;70.70;;;;;;4847925;29;20140;-81
2022/11/28 09:13:20;;;;;;;3.33;1.60;;;15.70;70.80;;;;;;4863350;29;20046;-81
2022/11/28 09:15:48;;;;;;;5.80;2.50;;;15.60;71.00;;;;;;4863792;29;20045;-83
2022/11/28 09:18:15;;;;;;;6.60;1.92;;;15.60;71.10;;;;;;4832648;29;20045;-83
2022/11/28 09:20:41;;;;;;;3.80;1.92;;;15.50;71.20;;;;;;4848220;29;20052;-82
2022/11/28 09:23:08;;;;;;;5.10;2.00;;;15.50;71.20;;;;;;4848229;29;20042;-80
2022/11/28 09:25:35;;;;;;;5.97;2.00;;;15.40;71.20;;;;;;4881717;29;20033;-83
2022/11/28 09:28:00;;;;;;;6.18;1.80;;;15.40;71.20;;;;;;4850803;29;20044;-83
2022/11/28 09:30:27;;;;;;;10.10;2.58;;;15.30;71.40;;;;;;4882580;29;20052;-76
2022/11/28 09:32:53;;;;;;;9.57;4.10;;;15.30;71.50;;;;;;4882373;29;20064;-78
2022/11/28 09:35:18;;;;;;;10.77;4.75;;;15.30;71.50;;;;;;4882615;29;20146;-78
2022/11/28 09:37:44;;;;;;;14.40;6.40;;;15.30;71.40;;;;;;4882858;29;20242;-76
2022/11/28 09:40:43;;;;;;;13.68;6.63;;;15.30;71.20;;;;;;4876816;29;20433;-80
2022/11/28 09:43:29;;;;;;;13.43;7.18;;;15.20;70.60;;;;;;4878908;29;20418;-79
2022/11/28 09:45:58;;;;;;;12.35;6.65;;;15.20;70.50;;;;;;4847498;29;20476;-82
2022/11/28 09:48:53;;;;;;;11.82;6.95;;;15.10;70.50;;;;;;4864207;29;20057;-81
2022/11/28 09:52:06;;;;;;;17.25;6.80;;;15.10;70.30;;;;;;4869162;29;20165;-80
2022/11/28 09:54:55;;;;;;;12.70;6.30;;;15.00;70.70;;;;;;4809843;29;20505;-86
2022/11/28 09:57:44;;;;;;;12.15;5.80;;;15.00;70.90;;;;;;4818294;29;20110;-83
2022/11/28 10:00:17;;;;;;;8.65;4.25;;;14.90;70.90;;;;;;4851758;29;20090;-82
2022/11/28 10:03:08;;;;;;;8.98;4.20;;;14.60;69.70;;;;;;4843458;29;20048;-82
2022/11/28 10:05:37;;;;;;;8.52;4.35;;;14.30;71.20;;;;;;4850897;29;20049;-83
2022/11/28 10:08:39;;;;;;;10.77;5.22;;;14.10;72.20;;;;;;4866375;29;20041;-84
2022/11/28 10:11:26;;;;;;;6.93;4.28;;;14.00;72.70;;;;;;4865531;29;20041;-84
2022/11/28 10:14:15;;;;;;;10.05;4.78;;;13.90;73.20;;;;;;4881768;29;20101;-83
2022/11/28 10:16:44;;;;;;;8.88;4.15;;;13.80;73.50;;;;;;4865570;29;20405;-81
2022/11/28 10:19:15;;;;;;;7.88;4.20;;;13.80;73.70;;;;;;4867580;29;20475;-82
2022/11/28 10:21:46;;;;;;;8.10;4.55;;;13.70;73.90;;;;;;4831894;29;20052;-83
2022/11/28 10:24:14;;;;;;;6.70;3.72;;;13.70;74.10;;;;;;4831832;29;20041;-84
2022/11/28 10:26:46;;;;;;;8.23;4.10;;;13.70;74.20;;;;;;4832029;29;20101;-83
2022/11/28 10:29:21;;;;;;;6.47;3.70;;;13.60;74.10;;;;;;4832100;29;20386;-83
2022/11/28 10:31:52;;;;;;;7.78;4.00;;;13.70;74.20;;;;;;4863099;29;20350;-83
2022/11/28 10:34:38;;;;;;;5.53;3.22;;;13.60;74.20;;;;;;4833980;29;20101;-83
2022/11/28 10:37:33;;;;;;;4.53;3.40;;;13.70;74.30;;;;;;4864921;29;20059;-82
2022/11/28 10:40:23;;;;;;;7.57;3.05;;;13.60;74.20;;;;;;4849732;29;20056;-80
2022/11/28 10:42:49;;;;;;;4.82;2.65;;;13.70;74.30;;;;;;4865849;29;20052;-74
2022/11/28 10:45:26;;;;;;;11.10;3.15;;;13.70;74.20;;;;;;4881536;29;20053;-82
2022/11/28 10:48:13;;;;;;;5.03;2.97;;;13.60;74.10;;;;;;4865112;29;20049;-76
2022/11/28 10:51:02;;;;;;;6.45;4.32;;;13.50;74.30;;;;;;4881001;29;20204;-82
2022/11/28 10:53:44;;;;;;;6.18;3.65;;;13.50;74.40;;;;;;4871035;29;20364;-83
2022/11/28 10:56:10;;;;;;;6.63;3.88;;;13.50;74.50;;;;;;4880564;29;20376;-84
2022/11/28 10:58:56;;;;;;;9.50;4.18;;;13.40;74.50;;;;;;4880421;29;20045;-84
2022/11/28 11:01:22;;;;;;;5.93;3.63;;;13.50;74.50;;;;;;4849661;29;20053;-83
2022/11/28 11:03:48;;;;;;;7.30;3.55;;;13.50;74.40;;;;;;4880839;29;20055;-82
2022/11/28 11:06:14;;;;;;;7.63;3.38;;;13.40;74.50;;;;;;4864908;29;20156;-84
2022/11/28 11:08:40;;;;;;;8.65;4.03;;;13.40;74.50;;;;;;4881518;29;20072;-82
2022/11/28 11:11:29;;;;;;;7.47;4.03;;;13.40;74.50;;;;;;4857023;29;20045;-84
2022/11/28 11:14:04;;;;;;;13.25;4.95;;;13.50;74.60;;;;;;4831411;29;20449;-77
2022/11/28 11:16:58;;;;;;;13.23;6.40;;;13.60;74.50;;;;;;4831036;29;20042;-84
2022/11/28 11:19:32;;;;;;;12.47;5.40;;;13.70;74.10;;;;;;4830555;29;20054;-81
2022/11/28 11:22:21;;;;;;;8.70;5.93;;;13.80;74.00;;;;;;4839373;29;20602;-79
2022/11/28 11:25:11;;;;;;;9.48;5.05;;;13.90;73.80;;;;;;4863138;29;20038;-79
2022/11/28 11:28:04;;;;;;;11.20;4.63;;;14.00;73.80;;;;;;4846963;29;20049;-82
2022/11/28 11:32:28;;;;;;;6.40;3.92;;;14.40;72.70;;;;;;5129185;27;20355;-79
2022/11/28 11:34:58;;;;;;;9.52;3.28;;;14.60;72.90;;;;;;5112591;28;20130;-82
2022/11/28 11:37:36;;;;;;;6.80;2.67;;;14.80;72.50;;;;;;5097846;28;20046;-83
2022/11/28 11:40:21;;;;;;;8.60;3.03;;;14.90;72.30;;;;;;5095587;28;20036;-80
2022/11/28 11:42:58;;;;;;;5.18;2.60;;;15.10;72.20;;;;;;5084452;28;20043;-80
2022/11/28 11:45:39;;;;;;;6.57;2.60;;;15.20;72.10;;;;;;5111742;28;20065;-80
2022/11/28 11:48:04;;;;;;;6.60;2.40;;;15.20;72.00;;;;;;5111220;28;20040;-80
2022/11/28 11:50:56;;;;;;;4.65;1.92;;;15.20;72.00;;;;;;5111689;28;20040;-81
2022/11/28 11:53:22;;;;;;;6.55;1.92;;;15.20;72.00;;;;;;5073895;28;20044;-80
2022/11/28 11:55:53;;;;;;;10.82;2.30;;;15.20;72.10;;;;;;5091166;28;20447;-81
2022/11/28 11:58:24;;;;;;;7.28;2.20;;;15.20;72.10;;;;;;5073679;28;20055;-81
2022/11/28 12:00:56;;;;;;;5.47;1.70;;;15.30;72.20;;;;;;5110394;28;20093;-82
2022/11/28 12:03:46;;;;;;;8.38;2.20;;;15.30;72.10;;;;;;5106092;28;20043;-82
2022/11/28 12:06:42;;;;;;;6.10;2.20;;;15.40;72.20;;;;;;5097794;28;20040;-80
2022/11/28 12:09:14;;;;;;;3.67;2.25;;;15.40;72.30;;;;;;5111548;28;20050;-80
2022/11/28 12:11:45;;;;;;;6.20;2.05;;;15.40;72.30;;;;;;5111048;28;20412;-81
2022/11/28 12:14:16;;;;;;;3.65;2.20;;;15.40;72.20;;;;;;5094698;28;20050;-80
2022/11/28 12:17:12;;;;;;;4.32;2.20;;;15.50;72.20;;;;;;5111382;28;20042;-80
2022/11/28 12:19:40;;;;;;;6.78;2.15;;;15.50;72.20;;;;;;5093775;28;20044;-80
2022/11/28 12:22:24;;;;;;;5.70;1.90;;;15.50;72.20;;;;;;5094184;28;20047;-79
2022/11/28 12:24:55;;;;;;;4.53;1.87;;;15.50;72.30;;;;;;5110811;28;20458;-80
2022/11/28 12:27:48;;;;;;;5.65;2.75;;;15.40;72.30;;;;;;5094577;28;20055;-80
2022/11/28 12:30:38;;;;;;;7.47;2.45;;;15.40;72.40;;;;;;5110500;28;20100;-81
2022/11/28 12:33:34;;;;;;;5.13;2.53;;;15.40;72.40;;;;;;5094154;28;20047;-81
2022/11/28 12:36:12;;;;;;;10.65;3.72;;;15.30;72.30;;;;;;5073255;28;20048;-83
2022/11/28 12:38:59;;;;;;;8.00;3.47;;;15.30;72.50;;;;;;5093610;28;20046;-83
2022/11/28 12:41:38;;;;;;;9.30;3.53;;;15.30;72.60;;;;;;5111241;28;20405;-79
2022/11/28 12:44:15;;;;;;;9.77;3.67;;;15.30;72.70;;;;;;5097928;28;20058;-81
2022/11/28 12:46:51;;;;;;;12.55;3.20;;;15.30;72.80;;;;;;5096942;28;20058;-79
2022/11/28 12:49:22;;;;;;;11.77;3.88;;;15.20;72.80;;;;;;5087287;28;20044;-79
2022/11/28 12:52:16;;;;;;;18.85;3.97;;;15.20;72.90;;;;;;5076834;28;20127;-81
2022/11/28 12:55:00;;;;;;;12.03;3.57;;;15.10;73.10;;;;;;5077391;28;20451;-80
2022/11/28 12:57:47;;;;;;;17.15;4.82;;;15.10;72.40;;;;;;5059916;28;20447;-80
2022/11/28 13:00:18;;;;;;;14.30;4.53;;;15.00;73.00;;;;;;5076545;28;20090;-81
2022/11/28 13:02:51;;;;;;;14.43;6.15;;;15.00;73.00;;;;;;5059855;28;20390;-82
2022/11/28 13:05:45;;;;;;;17.90;6.95;;;15.00;72.80;;;;;;5077214;28;20122;-81
2022/11/28 13:08:37;;;;;;;18.60;6.47;;;15.00;73.30;;;;;;5076706;28;20350;-81
2022/11/28 13:11:40;;;;;;;14.85;6.15;;;15.00;72.60;;;;;;5059496;28;20374;-80
2022/11/28 13:14:17;;;;;;;10.53;5.27;;;14.90;72.50;;;;;;5068708;28;20045;-82
2022/11/28 13:16:49;;;;;;;14.52;5.57;;;14.90;72.60;;;;;;5096727;28;20039;-81
2022/11/28 13:19:34;;;;;;;14.57;6.07;;;14.90;72.60;;;;;;5096601;28;20079;-83
2022/11/28 13:22:22;;;;;;;11.15;5.03;;;14.90;72.60;;;;;;5096435;28;20052;-81
2022/11/28 13:25:03;;;;;;;13.00;5.55;;;14.90;72.60;;;;;;5079555;28;20055;-79
2022/11/28 13:27:43;;;;;;;9.68;5.30;;;14.90;72.50;;;;;;5079478;28;20455;-80
2022/11/28 13:30:44;;;;;;;15.38;5.82;;;14.80;72.40;;;;;;5095783;28;20083;-80
2022/11/28 13:34:15;;;;;;;13.60;5.57;;;14.70;72.40;;;;;;5096750;28;20055;-78
2022/11/28 13:36:53;;;;;;;21.88;5.28;;;14.80;72.60;;;;;;5094758;28;20036;-81
2022/11/28 13:39:22;;;;;;;12.23;5.07;;;14.80;73.00;;;;;;5096058;28;20122;-81
2022/11/28 13:42:09;;;;;;;11.85;4.53;;;14.90;73.00;;;;;;5078991;28;20384;-79
2022/11/28 14:07:03;;;;;;;;;;;;;;;;;;;;;
2022/11/28 14:18:00;;;;;;;;;;;;;;;;;;;;;
2022/11/28 14:28:56;;;;;;;22.17;10.27;;;15.60;72.30;;;;;;4995772;28;20030;-81
2022/11/28 14:51:03;;;;;;;22.75;9.80;;;15.40;72.60;;;;;;5891332;24;20849;31
2022/11/28 15:02:43;;;;;;;27.38;9.15;;;15.40;73.20;;;;;;4865112;29;20057;-82
2022/11/28 15:05:28;;;;;;;26.30;10.05;;;15.30;73.40;;;;;;4849557;29;20109;-79
2022/11/28 15:08:17;;;;;;;33.72;11.93;;;15.30;73.80;;;;;;4881783;29;20453;-79
2022/11/28 15:10:56;;;;;;;26.85;11.88;;;15.30;72.90;;;;;;4881467;29;20040;-79
2022/11/28 15:13:53;;;;;;;30.35;11.57;;;15.30;72.70;;;;;;4864855;29;20099;-77
2022/11/28 15:16:21;;;;;;;29.27;13.43;;;15.30;72.30;;;;;;4861002;29;20071;-80
2022/11/28 15:18:52;;;;;;;25.52;14.10;;;15.30;71.90;;;;;;4882077;29;20059;-79
2022/11/28 15:21:19;;;;;;;25.50;11.73;;;15.20;71.40;;;;;;4881274;29;20381;-83
2022/11/28 15:23:48;;;;;;;22.58;13.07;;;15.20;71.10;;;;;;4865053;29;20041;-82
2022/11/28 15:26:26;;;;;;;25.25;12.38;;;15.10;71.30;;;;;;4848913;29;20072;-84
2022/11/28 15:29:27;;;;;;;25.90;12.57;;;15.00;71.50;;;;;;4863020;29;20055;-85
2022/11/28 15:32:00;;;;;;;27.65;12.32;;;14.90;71.80;;;;;;4862973;29;20041;-84
2022/11/28 15:34:37;;;;;;;22.30;11.73;;;15.00;72.00;;;;;;4878976;29;20041;-82
2022/11/28 15:37:15;;;;;;;26.83;10.70;;;15.00;72.10;;;;;;4848308;29;20064;-81
2022/11/28 15:39:44;;;;;;;24.80;12.18;;;15.00;72.20;;;;;;4850195;29;20488;-83
2022/11/28 15:42:21;;;;;;;25.00;11.35;;;15.00;72.30;;;;;;4848749;29;20072;-81
2022/11/28 15:44:54;;;;;;;32.85;12.07;;;14.90;72.40;;;;;;4878733;29;20104;-84
2022/11/28 15:47:44;;;;;;;33.55;11.38;;;14.90;72.60;;;;;;4848605;29;20049;-81
2022/11/28 15:50:25;;;;;;;33.03;11.45;;;14.90;72.80;;;;;;4865329;29;20033;-82
2022/11/28 15:53:15;;;;;;;33.85;10.55;;;14.90;72.90;;;;;;4863192;29;20048;-82
2022/11/28 15:55:41;;;;;;;36.45;11.23;;;14.90;73.30;;;;;;4848271;29;20037;-81
2022/11/28 15:58:22;;;;;;;46.03;11.15;;;14.90;73.50;;;;;;4848296;29;20434;-86
2022/11/28 16:01:39;;;;;;;24.55;9.88;;;15.00;73.90;;;;;;4862147;29;20087;-84
2022/11/28 16:11:30;;;;;;;27.77;9.95;;;15.00;74.80;;;;;;4861705;29;20052;-81
2022/11/28 16:13:59;;;;;;;27.95;10.10;;;15.10;74.80;;;;;;4864896;29;20045;-78
2022/11/28 16:16:29;;;;;;;29.80;9.68;;;15.10;75.00;;;;;;4880750;29;20342;-78
2022/11/28 16:19:04;;;;;;;35.70;8.55;;;15.10;75.00;;;;;;4867022;29;20124;-81
2022/11/28 16:25:35;;;;;;;53.45;9.85;;;15.30;75.10;;;;;;4867101;29;20057;-84
2022/11/28 16:28:36;;;;;;;21.98;9.13;;;15.40;75.00;;;;;;4853213;29;20048;-81
2022/11/28 16:31:19;;;;;;;21.83;8.25;;;15.40;74.30;;;;;;4867706;29;20465;-82
2022/11/28 16:34:35;;;;;;;;;;;;;;;;;;;;;
2022/11/28 16:37:23;;;;;;;20.25;7.18;;;15.30;74.10;;;;;;4862765;29;20076;-78
2022/11/28 16:40:04;;;;;;;17.83;6.60;;;15.40;74.30;;;;;;4867219;29;20057;-77
2022/11/28 16:42:31;;;;;;;23.52;7.57;;;15.30;74.40;;;;;;4867456;29;20337;-76
2022/11/28 16:45:16;;;;;;;21.67;6.35;;;15.30;74.40;;;;;;4884112;29;20045;-76
2022/11/28 16:47:42;;;;;;;15.35;6.35;;;15.40;74.60;;;;;;4884046;29;20076;-76
2022/11/28 16:50:19;;;;;;;20.50;6.10;;;15.30;74.70;;;;;;4883726;29;20056;-77
2022/11/28 16:52:47;;;;;;;21.85;6.03;;;15.30;74.80;;;;;;4883711;29;20080;-75
2022/11/28 16:55:28;;;;;;;21.98;6.40;;;15.30;74.80;;;;;;4883840;29;20464;-76
2022/11/28 16:58:10;;;;;;;24.58;5.95;;;15.30;75.00;;;;;;4883260;29;20065;-77
2022/11/28 17:00:38;;;;;;;21.60;5.63;;;15.30;75.20;;;;;;4884474;29;20049;-75
2022/11/28 17:03:04;;;;;;;16.08;5.30;;;15.30;75.20;;;;;;4883600;29;20049;-77
2022/11/28 17:05:30;;;;;;;21.58;5.38;;;15.30;75.30;;;;;;4883574;29;20045;-76
2022/11/28 17:07:56;;;;;;;17.83;4.95;;;15.30;75.50;;;;;;4883660;29;20041;-76
2022/11/28 17:10:39;;;;;;;29.58;6.28;;;15.30;75.70;;;;;;4870486;29;20041;-81
2022/11/28 17:13:38;;;;;;;23.00;5.33;;;15.30;75.90;;;;;;4849428;29;20045;-81
2022/11/28 17:16:20;;;;;;;20.42;4.85;;;15.30;75.90;;;;;;4848539;29;20427;-82
2022/11/28 17:19:40;;;;;;;16.83;4.75;;;15.30;75.90;;;;;;4833374;29;20128;-81
2022/11/28 17:22:24;;;;;;;20.35;6.25;;;15.20;76.10;;;;;;4847452;29;20083;-78
2022/11/28 17:24:54;;;;;;;17.70;6.97;;;15.20;75.90;;;;;;4833016;29;20085;-76
2022/11/28 17:27:19;;;;;;;27.00;9.82;;;15.20;75.50;;;;;;4870736;29;20457;-76
2022/11/28 17:29:45;;;;;;;21.05;11.63;;;15.20;74.90;;;;;;4867002;29;20128;-78
2022/11/28 17:32:17;;;;;;;21.90;11.65;;;15.20;74.40;;;;;;4882917;29;20464;-81
2022/11/28 17:34:44;;;;;;;24.80;10.90;;;15.20;74.10;;;;;;4866589;29;20033;-77
2022/11/28 17:37:10;;;;;;;24.13;11.73;;;15.20;74.00;;;;;;4866613;29;20069;-77
2022/11/28 17:39:36;;;;;;;26.73;12.45;;;15.10;73.90;;;;;;4866550;29;20045;-78
2022/11/28 17:42:03;;;;;;;31.70;11.45;;;15.10;73.90;;;;;;4866332;29;20088;-76
2022/11/28 17:44:31;;;;;;;24.02;11.45;;;15.10;73.80;;;;;;4866460;29;20052;-77
2022/11/28 17:46:59;;;;;;;24.42;10.95;;;15.10;73.60;;;;;;4882838;29;20480;-77
2022/11/28 17:49:25;;;;;;;20.30;9.98;;;15.10;73.60;;;;;;4883473;29;20365;-77
2022/11/28 17:51:53;;;;;;;21.08;11.40;;;15.00;73.60;;;;;;4851083;29;20380;-77
2022/11/28 17:54:20;;;;;;;19.83;10.43;;;15.00;73.60;;;;;;4866531;29;20052;-77
2022/11/28 17:56:48;;;;;;;15.82;9.32;;;15.00;73.60;;;;;;4850603;29;20060;-78
2022/11/28 17:59:16;;;;;;;16.02;9.80;;;15.00;73.60;;;;;;4866215;29;20053;-77
2022/11/28 18:01:42;;;;;;;17.50;10.15;;;15.00;73.60;;;;;;4882733;29;20115;-77
2022/11/28 18:04:09;;;;;;;16.83;10.18;;;14.90;73.50;;;;;;4882637;29;20044;-77
2022/11/28 18:06:34;;;;;;;15.68;9.52;;;14.90;73.50;;;;;;4850890;29;20068;-77
2022/11/28 18:09:03;;;;;;;18.20;9.10;;;14.90;73.50;;;;;;4850735;29;20053;-78
2022/11/28 18:11:28;;;;;;;16.05;9.30;;;14.90;73.60;;;;;;4850609;29;20429;-78
2022/11/28 18:13:54;;;;;;;15.13;9.02;;;14.90;73.60;;;;;;4882730;29;20120;-77
2022/11/28 18:16:23;;;;;;;13.00;8.20;;;14.90;73.60;;;;;;4850618;29;20404;-78
2022/11/28 18:18:49;;;;;;;14.63;8.65;;;14.80;73.60;;;;;;4882473;29;20120;-77
2022/11/28 18:21:15;;;;;;;16.77;8.48;;;14.80;73.60;;;;;;4865986;29;20128;-77
2022/11/28 18:23:43;;;;;;;15.57;8.75;;;14.80;73.60;;;;;;4850445;29;20056;-76
2022/11/28 18:26:11;;;;;;;12.75;8.15;;;14.80;73.60;;;;;;4850440;29;20334;-77
2022/11/28 18:28:37;;;;;;;17.00;12.50;;;14.80;73.60;;;;;;4881572;29;20116;-79
2022/11/28 18:31:11;;;;;;;22.35;15.38;;;14.90;73.00;;;;;;4849768;29;20071;-79
2022/11/28 18:33:38;;;;;;;19.95;15.02;;;14.90;70.70;;;;;;4865238;29;20053;-80
2022/11/28 18:36:24;;;;;;;20.65;14.77;;;14.70;70.00;;;;;;4865681;29;20037;-79
2022/11/28 18:38:58;;;;;;;21.90;14.23;;;14.50;70.50;;;;;;4865333;29;20437;-78
2022/11/28 18:41:27;;;;;;;18.77;13.18;;;14.40;71.20;;;;;;4881274;29;20045;-81
2022/11/28 18:45:13;;;;;;;;;;;;;;;;;;;;;
2022/11/28 18:48:30;;;;;;;16.88;12.68;;;14.40;72.30;;;;;;4807047;29;20500;-82
2022/11/28 18:54:41;;;;;;;19.10;12.40;;;14.30;73.10;;;;;;4811997;29;20060;-79
2022/11/28 18:57:15;;;;;;;17.23;12.32;;;14.30;73.30;;;;;;4834972;29;20588;-80
2022/11/28 18:59:45;;;;;;;15.45;10.93;;;14.30;73.40;;;;;;4865320;29;20121;-80
2022/11/28 19:02:16;;;;;;;16.85;11.35;;;14.30;73.60;;;;;;4865982;29;20460;-80
2022/11/28 19:04:53;;;;;;;14.15;9.68;;;14.30;74.00;;;;;;4849583;29;20045;-80
2022/11/28 19:07:23;;;;;;;16.10;10.50;;;14.20;74.20;;;;;;4850642;29;20076;-81
2022/11/28 19:09:52;;;;;;;20.30;9.48;;;14.20;74.50;;;;;;4865474;29;20045;-81
2022/11/28 19:12:18;;;;;;;14.65;10.27;;;14.20;74.80;;;;;;4863455;29;20388;-81
2022/11/28 19:14:45;;;;;;;21.27;8.60;;;14.10;75.00;;;;;;4865404;29;20420;-80
2022/11/28 19:17:11;;;;;;;12.60;9.13;;;14.10;75.30;;;;;;4865112;29;20049;-80
2022/11/28 19:19:42;;;;;;;13.15;9.50;;;14.10;75.20;;;;;;4864643;29;20109;-82
2022/11/28 19:22:10;;;;;;;14.60;8.60;;;14.10;75.40;;;;;;4849264;29;20044;-80
2022/11/28 19:24:37;;;;;;;15.55;8.73;;;14.10;75.50;;;;;;4848948;29;20055;-80
2022/11/28 19:27:03;;;;;;;13.73;8.77;;;14.10;75.50;;;;;;4848830;29;20052;-82
2022/11/28 19:29:31;;;;;;;12.25;8.70;;;14.00;75.50;;;;;;4849436;29;20068;-80
2022/11/28 19:31:57;;;;;;;15.55;8.73;;;14.00;75.50;;;;;;4864201;29;20045;-79
2022/11/28 19:34:25;;;;;;;10.65;7.80;;;14.00;75.50;;;;;;4880874;29;20093;-80
2022/11/28 19:36:54;;;;;;;12.23;7.25;;;14.00;75.60;;;;;;4848491;29;20045;-81
2022/11/28 19:39:24;;;;;;;12.68;7.35;;;14.00;75.60;;;;;;4846648;29;20120;-81
2022/11/28 19:41:53;;;;;;;9.85;7.20;;;14.10;75.90;;;;;;4848484;29;20044;-77
2022/11/28 19:44:20;;;;;;;13.50;7.22;;;14.00;75.90;;;;;;4878002;29;20090;-80
2022/11/28 19:46:46;;;;;;;11.05;7.55;;;14.00;75.90;;;;;;4880305;29;20041;-78